createdAt,value
2018-07-20T00:02:54.644Z,95.30
2018-07-20T00:05:22.843Z,95.00
2018-07-20T00:07:51.009Z,95.70
2018-07-20T00:10:19.211Z,95.60
2018-07-20T00:12:47.383Z,96.00
2018-07-20T00:17:43.527Z,96.30
2018-07-20T00:20:11.695Z,96.10
2018-07-20T00:25:08.050Z,96.30
2018-07-20T00:30:04.468Z,97.10
2018-07-20T00:32:32.649Z,96.80
2018-07-20T00:35:00.817Z,97.10
2018-07-20T00:37:28.983Z,97.10
2018-07-20T00:39:57.258Z,97.40
2018-07-20T00:42:25.560Z,97.30
2018-07-20T00:47:21.655Z,97.80
2018-07-20T00:49:49.836Z,97.80
2018-07-20T00:52:18.021Z,98.00
2018-07-20T00:54:46.204Z,98.40
2018-07-20T00:57:14.395Z,98.30
2018-07-20T01:04:38.500Z,98.70
2018-07-20T01:07:06.664Z,98.80
2018-07-20T01:09:34.847Z,98.80
2018-07-20T01:14:30.976Z,99.10
2018-07-20T01:16:59.166Z,99.10
2018-07-20T01:19:27.345Z,99.30
2018-07-20T01:24:24.471Z,99.50
2018-07-20T01:26:52.640Z,99.80
2018-07-20T01:29:21.074Z,99.90
2018-07-20T01:31:49.262Z,99.90
2018-07-20T01:34:17.472Z,99.90
2018-07-20T01:36:45.651Z,99.90
2018-07-20T01:39:13.811Z,99.90
2018-07-20T01:41:42.008Z,99.90
2018-07-20T01:44:10.182Z,99.90
2018-07-20T01:46:38.411Z,99.90
2018-07-20T01:49:06.696Z,99.90
2018-07-20T01:51:34.880Z,99.90
2018-07-20T01:54:04.164Z,99.90
2018-07-20T01:56:32.344Z,99.90
2018-07-20T01:59:00.519Z,99.90
2018-07-20T02:01:28.692Z,99.90
2018-07-20T02:03:56.884Z,99.90
2018-07-20T02:06:25.079Z,99.90
2018-07-20T02:08:53.467Z,99.90
2018-07-20T02:13:49.567Z,99.90
2018-07-20T02:16:17.748Z,99.90
2018-07-20T02:18:45.924Z,99.90
2018-07-20T02:21:14.108Z,99.90
2018-07-20T02:23:42.292Z,99.90
2018-07-20T02:26:10.463Z,99.90
2018-07-20T02:28:38.664Z,99.90
2018-07-20T02:33:35.083Z,99.90
2018-07-20T02:36:03.520Z,99.90
2018-07-20T02:38:31.700Z,99.90
2018-07-20T02:40:59.895Z,99.90
2018-07-20T02:43:28.092Z,99.90
2018-07-20T02:45:56.271Z,99.90
2018-07-20T02:50:52.392Z,99.90
2018-07-20T02:53:20.575Z,99.90
2018-07-20T02:55:48.760Z,99.90
2018-07-20T02:58:17.162Z,99.90
2018-07-20T03:00:45.342Z,99.90
2018-07-20T03:03:13.540Z,99.90
2018-07-20T03:05:41.737Z,99.90
2018-07-20T03:08:09.903Z,99.90
2018-07-20T03:10:38.074Z,99.90
2018-07-20T03:13:06.776Z,99.90
2018-07-20T03:15:34.959Z,99.90
2018-07-20T03:18:03.156Z,99.90
2018-07-20T03:20:31.332Z,99.90
2018-07-20T03:22:59.595Z,99.90
2018-07-20T03:27:55.755Z,99.90
2018-07-20T03:30:24.130Z,99.90
2018-07-20T03:32:52.588Z,99.90
2018-07-20T03:35:20.765Z,99.90
2018-07-20T03:40:16.942Z,99.90
2018-07-20T03:42:45.129Z,99.90
2018-07-20T03:45:13.428Z,99.90
2018-07-20T03:47:41.597Z,99.90
2018-07-20T03:50:09.783Z,99.90
2018-07-20T03:52:37.959Z,99.90
2018-07-20T03:55:06.145Z,99.90
2018-07-20T03:57:34.327Z,99.90
2018-07-20T04:02:30.622Z,99.90
2018-07-20T04:04:58.769Z,99.90
2018-07-20T04:07:26.934Z,99.90
2018-07-20T04:09:55.102Z,99.90
2018-07-20T04:12:23.800Z,99.90
2018-07-20T04:14:52.008Z,99.90
2018-07-20T04:17:20.172Z,99.90
2018-07-20T04:19:48.519Z,99.90
2018-07-20T04:22:16.695Z,99.90
2018-07-20T04:24:44.894Z,99.90
2018-07-20T04:27:13.060Z,99.90
2018-07-20T04:29:41.835Z,99.90
2018-07-20T04:32:10.024Z,99.90
2018-07-20T04:34:38.303Z,99.90
2018-07-20T04:37:06.472Z,99.90
2018-07-20T04:39:35.169Z,99.90
2018-07-20T04:42:04.361Z,99.90
2018-07-20T04:44:32.569Z,99.90
2018-07-20T04:47:00.740Z,99.90
2018-07-20T04:49:28.907Z,99.90
2018-07-20T04:51:57.149Z,99.90
2018-07-20T04:54:25.360Z,99.90
2018-07-20T04:56:53.521Z,99.90
2018-07-20T04:59:21.855Z,99.90
2018-07-20T05:01:50.041Z,99.90
2018-07-20T05:04:18.235Z,99.90
2018-07-20T05:06:46.435Z,99.90
2018-07-20T05:09:14.612Z,99.90
2018-07-20T05:11:42.800Z,99.90
2018-07-20T05:16:39.554Z,99.90
2018-07-20T05:19:07.732Z,99.90
2018-07-20T05:26:31.828Z,99.90
2018-07-20T05:29:00.335Z,99.90
2018-07-20T05:33:56.464Z,99.90
2018-07-20T05:36:24.651Z,99.90
2018-07-20T05:38:52.820Z,99.90
2018-07-20T05:43:49.160Z,99.90
2018-07-20T05:48:45.672Z,99.90
2018-07-20T05:51:14.032Z,99.90
2018-07-20T05:53:42.304Z,99.90
2018-07-20T05:56:10.479Z,99.90
2018-07-20T05:58:38.649Z,99.90
2018-07-20T06:01:06.928Z,99.90
2018-07-20T06:03:35.098Z,99.90
2018-07-20T06:06:03.355Z,99.90
2018-07-20T06:08:31.531Z,99.90
2018-07-20T06:10:59.787Z,99.90
2018-07-20T06:15:55.948Z,99.90
2018-07-20T06:18:24.147Z,99.90
2018-07-20T06:20:52.298Z,99.90
2018-07-20T06:23:20.487Z,99.90
2018-07-20T06:25:48.663Z,99.90
2018-07-20T06:28:16.821Z,99.90
2018-07-20T06:30:45.005Z,99.90
2018-07-20T06:33:13.179Z,99.90
2018-07-20T06:35:41.350Z,99.90
2018-07-20T06:38:09.504Z,99.90
2018-07-20T06:40:37.691Z,99.90
2018-07-20T06:43:06.024Z,99.90
2018-07-20T06:45:34.232Z,99.90
2018-07-20T06:48:02.472Z,99.90
2018-07-20T06:50:30.640Z,99.90
2018-07-20T06:52:59.199Z,99.90
2018-07-20T06:55:27.373Z,99.90
2018-07-20T06:57:55.531Z,99.90
2018-07-20T07:00:23.693Z,99.90
2018-07-20T07:02:51.887Z,99.90
2018-07-20T07:05:20.076Z,99.90
2018-07-20T07:07:48.240Z,99.90
2018-07-20T07:10:16.703Z,99.90
2018-07-20T07:12:44.872Z,99.90
2018-07-20T07:15:13.055Z,99.90
2018-07-20T07:17:41.315Z,99.90
2018-07-20T07:20:09.537Z,99.90
2018-07-20T07:22:37.715Z,99.90
2018-07-20T07:25:05.891Z,99.90
2018-07-20T07:27:34.102Z,99.90
2018-07-20T07:30:02.247Z,99.90
2018-07-20T07:32:30.414Z,99.90
2018-07-20T07:34:58.640Z,99.90
2018-07-20T07:37:26.805Z,99.90
2018-07-20T07:39:54.972Z,99.90
2018-07-20T07:42:23.163Z,99.90
2018-07-20T07:44:51.344Z,99.90
2018-07-20T07:47:19.576Z,99.90
2018-07-20T07:52:24.006Z,99.90
2018-07-20T07:57:26.340Z,99.90
2018-07-20T07:59:57.756Z,99.90
2018-07-20T08:02:30.767Z,99.90
2018-07-20T08:05:01.843Z,99.90
2018-07-20T08:09:59.447Z,99.90
2018-07-20T08:14:59.492Z,99.90
2018-07-20T08:17:28.640Z,99.90
2018-07-20T08:19:57.601Z,99.90
2018-07-20T08:22:28.828Z,99.90
2018-07-20T08:27:28.240Z,99.90
2018-07-20T08:35:01.505Z,99.90
2018-07-20T08:37:30.981Z,99.70
2018-07-20T08:40:05.074Z,99.80
2018-07-20T08:42:35.766Z,99.50
2018-07-20T08:45:05.656Z,99.40
2018-07-20T08:47:34.988Z,98.90
2018-07-20T08:50:07.803Z,98.30
2018-07-20T08:55:09.637Z,97.80
2018-07-20T08:57:38.393Z,97.90
2018-07-20T09:00:09.248Z,97.60
2018-07-20T09:02:39.085Z,97.60
2018-07-20T09:05:08.594Z,97.20
2018-07-20T09:07:39.220Z,97.10
2018-07-20T09:10:09.762Z,96.90
2018-07-20T09:12:39.541Z,96.80
2018-07-20T09:15:09.587Z,96.40
2018-07-20T09:17:40.013Z,96.00
2018-07-20T09:20:13.750Z,95.80
2018-07-20T09:25:13.092Z,95.50
2018-07-20T09:27:44.270Z,95.10
2018-07-20T09:30:13.511Z,94.80
2018-07-20T09:35:09.677Z,94.80
2018-07-20T09:37:37.872Z,94.50
2018-07-20T09:40:06.655Z,94.40
2018-07-20T09:42:34.812Z,94.00
2018-07-20T09:45:02.991Z,93.40
2018-07-20T09:47:31.160Z,93.50
2018-07-20T09:49:59.328Z,93.50
2018-07-20T09:52:27.520Z,93.70
2018-07-20T09:54:55.719Z,94.10
2018-07-20T09:57:24.538Z,93.70
2018-07-20T10:02:20.660Z,92.80
2018-07-20T10:04:48.831Z,92.60
2018-07-20T10:07:17.020Z,92.50
2018-07-20T10:14:41.178Z,92.30
2018-07-20T10:17:09.340Z,92.00
2018-07-20T10:19:37.560Z,91.80
2018-07-20T10:22:06.155Z,91.50
2018-07-20T10:24:34.328Z,91.70
2018-07-20T10:27:02.516Z,91.20
2018-07-20T10:34:26.592Z,91.60
2018-07-20T10:36:54.798Z,91.40
2018-07-20T10:41:52.169Z,90.50
2018-07-20T10:46:48.508Z,90.80
2018-07-20T10:49:16.705Z,90.70
2018-07-20T10:51:44.923Z,90.70
2018-07-20T10:54:13.091Z,90.80
2018-07-20T10:56:41.259Z,88.80
2018-07-20T10:59:09.437Z,90.60
2018-07-20T11:01:37.645Z,90.40
2018-07-20T11:04:06.031Z,88.30
2018-07-20T11:06:34.192Z,88.70
2018-07-20T11:09:02.420Z,89.80
2018-07-20T11:11:30.599Z,89.70
2018-07-20T11:13:58.784Z,90.00
2018-07-20T11:16:26.955Z,87.90
2018-07-20T11:18:55.141Z,86.60
2018-07-20T11:21:23.384Z,87.00
2018-07-20T11:23:51.567Z,87.50
2018-07-20T11:26:19.732Z,87.10
2018-07-20T11:28:47.916Z,87.10
2018-07-20T11:31:16.075Z,87.50
2018-07-20T11:33:44.252Z,87.40
2018-07-20T11:36:12.424Z,85.10
2018-07-20T11:38:40.599Z,86.40
2018-07-20T11:41:08.975Z,83.10
2018-07-20T11:43:37.180Z,84.70
2018-07-20T11:46:05.524Z,84.70
2018-07-20T11:48:33.695Z,84.40
2018-07-20T11:51:01.888Z,83.90
2018-07-20T11:53:30.104Z,84.40
2018-07-20T11:58:26.289Z,83.40
2018-07-20T12:00:54.461Z,82.10
2018-07-20T12:03:22.671Z,83.80
2018-07-20T12:05:50.823Z,84.00
2018-07-20T12:08:19.001Z,83.60
2018-07-20T12:10:47.167Z,84.50
2018-07-20T12:13:15.352Z,83.10
2018-07-20T12:15:43.629Z,83.30
2018-07-20T12:18:11.781Z,83.30
2018-07-20T12:20:39.934Z,84.30
2018-07-20T12:23:08.156Z,84.20
2018-07-20T12:25:36.320Z,84.10
2018-07-20T12:28:04.581Z,84.60
2018-07-20T12:30:32.747Z,83.50
2018-07-20T12:33:00.924Z,82.90
2018-07-20T12:35:29.112Z,83.10
2018-07-20T12:37:57.272Z,81.10
2018-07-20T12:40:25.433Z,79.10
2018-07-20T12:42:54.216Z,78.80
2018-07-20T12:45:22.376Z,79.70
2018-07-20T12:47:50.564Z,80.80
2018-07-20T12:50:18.787Z,81.40
2018-07-20T12:52:46.928Z,80.20
2018-07-20T12:55:15.111Z,80.70
2018-07-20T12:57:43.304Z,78.80
2018-07-20T13:00:11.464Z,78.80
2018-07-20T13:02:39.640Z,77.20
2018-07-20T13:05:07.886Z,79.10
2018-07-20T13:07:36.068Z,79.80
2018-07-20T13:10:04.809Z,80.40
2018-07-20T13:15:00.944Z,78.60
2018-07-20T13:17:29.131Z,77.10
2018-07-20T13:22:25.243Z,77.00
2018-07-20T13:24:53.507Z,77.60
2018-07-20T13:27:21.757Z,77.00
2018-07-20T13:29:49.930Z,76.50
2018-07-20T13:32:18.106Z,76.10
2018-07-20T13:34:46.262Z,77.40
2018-07-20T13:37:14.451Z,77.10
2018-07-20T13:39:42.670Z,76.20
2018-07-20T13:42:10.783Z,76.20
2018-07-20T13:44:38.971Z,77.40
2018-07-20T13:47:07.223Z,77.20
2018-07-20T13:49:35.404Z,76.50
2018-07-20T13:52:03.563Z,75.20
2018-07-20T13:59:27.644Z,75.20
2018-07-20T14:01:55.847Z,75.30
2018-07-20T14:06:52.518Z,74.50
2018-07-20T14:09:21.733Z,75.20
2018-07-20T14:11:49.900Z,73.50
2018-07-20T14:14:18.075Z,73.80
2018-07-20T14:16:46.304Z,73.80
2018-07-20T14:19:14.427Z,74.70
2018-07-20T14:21:42.786Z,73.30
2018-07-20T14:24:11.076Z,73.90
2018-07-20T14:26:39.330Z,74.70
2018-07-20T14:29:07.513Z,73.90
2018-07-20T14:31:35.749Z,73.40
2018-07-20T14:34:03.842Z,73.70
2018-07-20T14:38:59.928Z,72.90
2018-07-20T14:41:28.099Z,73.30
2018-07-20T14:43:56.307Z,74.10
2018-07-20T14:46:25.089Z,73.00
2018-07-20T14:48:53.283Z,73.80
2018-07-20T14:53:49.424Z,73.20
2018-07-20T14:58:45.532Z,73.30
2018-07-20T15:01:13.701Z,73.50
2018-07-20T15:03:41.868Z,73.60
2018-07-20T15:06:10.039Z,74.10
2018-07-20T15:08:38.249Z,73.80
2018-07-20T15:11:06.475Z,74.30
2018-07-20T15:13:34.649Z,74.00
2018-07-20T15:16:02.979Z,73.70
2018-07-20T15:20:59.848Z,74.90
2018-07-20T15:23:29.117Z,75.30
2018-07-20T15:25:57.348Z,75.70
2018-07-20T15:28:25.553Z,75.50
2018-07-20T15:30:53.725Z,75.20
2018-07-20T15:33:21.924Z,75.00
2018-07-20T15:35:50.088Z,74.40
2018-07-20T15:38:18.271Z,75.20
2018-07-20T15:40:46.462Z,75.60
2018-07-20T15:48:11.283Z,74.10
2018-07-20T15:50:39.456Z,74.00
2018-07-20T15:55:35.763Z,75.10
2018-07-20T15:58:03.971Z,75.00
2018-07-20T16:00:32.155Z,75.00
2018-07-20T16:05:28.375Z,75.50
2018-07-20T16:07:56.551Z,75.50
2018-07-20T16:10:25.215Z,75.60
2018-07-20T16:12:53.406Z,76.00
2018-07-20T16:15:21.589Z,76.80
2018-07-20T16:17:49.772Z,76.90
2018-07-20T16:20:17.956Z,77.20
2018-07-20T16:25:14.083Z,76.70
2018-07-20T16:27:42.239Z,76.80
2018-07-20T16:30:10.420Z,76.90
2018-07-20T16:32:38.575Z,77.50
2018-07-20T16:35:07.040Z,77.60
2018-07-20T16:37:35.227Z,77.80
2018-07-20T16:40:03.421Z,77.80
2018-07-20T16:42:31.623Z,78.10
2018-07-20T16:44:59.883Z,78.30
2018-07-20T16:47:28.037Z,78.60
2018-07-20T16:49:56.297Z,78.60
2018-07-20T16:52:24.508Z,78.40
2018-07-20T16:59:48.670Z,78.50
2018-07-20T17:02:16.849Z,78.80
2018-07-20T17:04:45.028Z,79.00
2018-07-20T17:07:13.200Z,79.40
2018-07-20T17:09:41.356Z,79.50
2018-07-20T17:12:09.531Z,79.00
2018-07-20T17:14:37.822Z,79.20
2018-07-20T17:17:06.023Z,79.20
2018-07-20T17:19:34.216Z,79.50
2018-07-20T17:24:30.377Z,79.20
2018-07-20T17:26:58.573Z,79.60
2018-07-20T17:29:26.770Z,80.30
2018-07-20T17:31:54.939Z,79.80
2018-07-20T17:34:24.008Z,79.90
2018-07-20T17:36:52.179Z,80.80
2018-07-20T17:39:20.476Z,80.70
2018-07-20T17:41:48.656Z,81.00
2018-07-20T17:44:16.827Z,80.80
2018-07-20T17:46:44.991Z,80.30
2018-07-20T17:49:13.175Z,80.10
2018-07-20T17:51:41.339Z,79.90
2018-07-20T17:54:09.542Z,79.90
2018-07-20T17:56:37.691Z,79.60
2018-07-20T17:59:05.868Z,79.70
2018-07-20T18:01:34.200Z,79.00
2018-07-20T18:04:02.468Z,79.30
2018-07-20T18:06:30.676Z,79.20
2018-07-20T18:08:58.847Z,80.00
2018-07-20T18:11:27.042Z,80.40
2018-07-20T18:13:55.247Z,80.90
2018-07-20T18:16:23.441Z,80.50
2018-07-20T18:21:19.548Z,80.90
2018-07-20T18:23:47.755Z,80.90
2018-07-20T18:28:43.866Z,81.50
2018-07-20T18:31:12.051Z,81.50
2018-07-20T18:33:40.243Z,82.10
2018-07-20T18:38:36.642Z,82.20
2018-07-20T18:41:04.837Z,82.20
2018-07-20T18:43:33.012Z,82.00
2018-07-20T18:46:01.208Z,82.70
2018-07-20T18:50:57.324Z,82.00
2018-07-20T18:53:25.524Z,83.70
2018-07-20T19:00:49.604Z,83.50
2018-07-20T19:03:17.804Z,84.00
2018-07-20T19:08:13.940Z,83.90
2018-07-20T19:13:10.062Z,84.30
2018-07-20T19:15:38.271Z,84.80
2018-07-20T19:20:34.390Z,85.10
2018-07-20T19:23:02.563Z,85.00
2018-07-20T19:25:30.742Z,84.80
2018-07-20T19:27:58.943Z,85.40
2018-07-20T19:32:55.194Z,85.30
2018-07-20T19:35:23.363Z,85.40
2018-07-20T19:37:51.686Z,85.30
2018-07-20T19:40:19.891Z,85.50
2018-07-20T19:42:48.072Z,85.30
2018-07-20T19:47:44.178Z,85.70
2018-07-20T19:50:12.357Z,85.60
2018-07-20T19:52:40.560Z,85.10
2018-07-20T19:57:36.903Z,85.60
2018-07-20T20:00:07.456Z,85.40
2018-07-20T20:02:35.624Z,86.00
2018-07-20T20:05:03.874Z,85.60
2018-07-20T20:07:32.084Z,85.80
2018-07-20T20:10:00.252Z,85.20
2018-07-20T20:12:28.451Z,85.30
2018-07-20T20:14:56.641Z,86.10
2018-07-20T20:17:24.880Z,86.10
2018-07-20T20:19:53.060Z,85.80
2018-07-20T20:22:21.275Z,85.80
2018-07-20T20:24:49.458Z,85.70
2018-07-20T20:27:17.661Z,86.00
2018-07-20T20:29:45.839Z,86.40
2018-07-20T20:32:14.030Z,86.80
2018-07-20T20:34:42.298Z,87.40
2018-07-20T20:37:10.526Z,87.40
2018-07-20T20:39:38.704Z,88.10
2018-07-20T20:42:06.903Z,87.50
2018-07-20T20:44:35.197Z,87.80
2018-07-20T20:47:03.382Z,88.30
2018-07-20T20:49:31.594Z,88.50
2018-07-20T20:51:59.779Z,88.90
2018-07-20T20:59:24.376Z,89.10
2018-07-20T21:01:52.576Z,89.80
2018-07-20T21:09:16.740Z,91.10
2018-07-20T21:11:44.934Z,90.80
2018-07-20T21:14:13.119Z,91.30
2018-07-20T21:16:41.295Z,91.50
2018-07-20T21:19:09.500Z,92.00
2018-07-20T21:21:37.708Z,91.80
2018-07-20T21:24:06.549Z,92.20
2018-07-20T21:29:02.756Z,92.60
2018-07-20T21:31:30.947Z,92.30
2018-07-20T21:33:59.141Z,93.40
2018-07-20T21:38:55.297Z,92.70
2018-07-20T21:41:24.098Z,93.30
2018-07-20T21:43:52.273Z,93.10
2018-07-20T21:46:20.459Z,92.90
2018-07-20T21:48:48.710Z,93.40
2018-07-20T21:51:16.865Z,94.00
2018-07-20T21:56:13.072Z,94.00
2018-07-20T21:58:41.249Z,94.20
2018-07-20T22:01:09.440Z,94.30
2018-07-20T22:03:37.673Z,94.40
2018-07-20T22:06:05.867Z,94.40
2018-07-20T22:08:34.054Z,94.80
2018-07-20T22:11:02.258Z,95.40
2018-07-20T22:15:58.469Z,96.20
2018-07-20T22:18:26.676Z,96.30
2018-07-20T22:25:51.860Z,95.90
2018-07-20T22:28:20.040Z,96.10
2018-07-20T22:30:48.251Z,96.50
2018-07-20T22:35:44.399Z,96.50
2018-07-20T22:38:12.580Z,96.90
2018-07-20T22:40:40.806Z,96.50
2018-07-20T22:43:09.012Z,97.40
2018-07-20T22:50:33.102Z,97.20
2018-07-20T22:53:01.344Z,96.80
2018-07-20T22:55:29.525Z,96.80
2018-07-20T22:57:57.708Z,97.10
2018-07-20T23:00:25.886Z,97.20
2018-07-20T23:02:54.119Z,97.60
2018-07-20T23:05:22.261Z,97.00
2018-07-20T23:07:50.480Z,97.10
2018-07-20T23:10:18.756Z,97.50
2018-07-20T23:12:46.951Z,97.10
2018-07-20T23:15:15.120Z,97.60
2018-07-20T23:17:43.300Z,98.10
2018-07-20T23:20:11.478Z,97.90
2018-07-20T23:22:39.795Z,97.50
2018-07-20T23:27:36.091Z,97.50
2018-07-20T23:30:04.655Z,97.80
2018-07-20T23:32:32.951Z,97.70
2018-07-20T23:35:01.135Z,97.70
2018-07-20T23:37:29.382Z,97.50
2018-07-20T23:39:57.579Z,97.30
2018-07-20T23:42:25.776Z,97.60
2018-07-20T23:44:53.964Z,97.90
2018-07-20T23:49:50.093Z,97.50
2018-07-20T23:52:18.313Z,97.80
2018-07-20T23:54:46.499Z,97.50
2018-07-20T23:57:14.667Z,97.70
2018-07-20T23:59:42.894Z,97.40
